Time;durP1;ratioP1;P1;durP2;ratioP2;P2;SDS_P1;SDS_P2;PMS_P1;PMS_P2;Temp;Humidity;BMP_temperature;BMP_pressure;BME280_temperature;BME280_humidity;BME280_pressure;Samples;Min_cycle;Max_cycle;Signal;HPM_P1;HPM_P2
2022/11/02 00:01:11;;;;;;;79.85;50.65;;;17.00;97.00;;;;;;5095528;28;20115;-64
2022/11/02 00:03:36;;;;;;;82.93;50.88;;;16.90;97.00;;;;;;5095601;28;20470;-65
2022/11/02 00:06:02;;;;;;;84.32;53.40;;;16.90;97.00;;;;;;5095655;28;20043;-64
2022/11/02 00:08:28;;;;;;;80.50;53.22;;;16.90;97.10;;;;;;5095926;28;20497;-65
2022/11/02 00:10:53;;;;;;;76.63;51.28;;;16.80;97.10;;;;;;5095633;28;20020;-65
2022/11/02 00:13:19;;;;;;;80.70;55.13;;;16.80;97.10;;;;;;5095556;28;20028;-64
2022/11/02 00:15:46;;;;;;;80.82;52.30;;;16.80;97.10;;;;;;5095646;28;20016;-65
2022/11/02 00:18:13;;;;;;;81.22;51.28;;;16.80;97.10;;;;;;5095412;28;20055;-65
2022/11/02 00:20:41;;;;;;;84.80;51.22;;;16.80;97.10;;;;;;5095542;28;20028;-65
2022/11/02 00:23:09;;;;;;;80.65;52.10;;;16.80;97.10;;;;;;5095515;28;20024;-64
2022/11/02 00:25:40;;;;;;;75.20;49.72;;;16.70;97.00;;;;;;5095435;28;20489;-64
2022/11/02 00:28:06;;;;;;;78.82;50.85;;;16.70;97.00;;;;;;5095236;28;20400;-65
2022/11/02 00:30:32;;;;;;;80.75;52.30;;;16.70;97.00;;;;;;5095488;28;20073;-69
2022/11/02 00:32:57;;;;;;;80.25;51.58;;;16.70;97.00;;;;;;5095316;28;20408;-67
2022/11/02 00:35:23;;;;;;;75.70;50.63;;;16.60;97.10;;;;;;5095112;28;20050;-64
2022/11/02 00:37:49;;;;;;;82.28;52.15;;;16.60;97.10;;;;;;5094958;28;20071;-64
2022/11/02 00:40:15;;;;;;;78.70;51.42;;;16.60;97.20;;;;;;5095019;28;20024;-69
2022/11/02 00:42:40;;;;;;;80.32;49.83;;;16.60;97.20;;;;;;5095403;28;20108;-65
2022/11/02 00:45:07;;;;;;;78.07;50.55;;;16.60;97.10;;;;;;5095153;28;20044;-64
2022/11/02 00:47:33;;;;;;;82.40;51.50;;;16.60;97.20;;;;;;5095398;28;20025;-64
2022/11/02 00:49:58;;;;;;;75.85;50.17;;;16.50;97.10;;;;;;5094869;28;20504;-64
2022/11/02 00:52:24;;;;;;;84.05;54.33;;;16.50;97.10;;;;;;5094955;28;20020;-64
2022/11/02 00:54:50;;;;;;;74.90;50.60;;;16.50;97.20;;;;;;5094962;28;20078;-63
2022/11/02 00:57:16;;;;;;;79.30;50.88;;;16.50;97.20;;;;;;5094737;28;20565;-65
2022/11/02 00:59:41;;;;;;;79.45;51.65;;;16.50;97.50;;;;;;5094620;28;20142;-72
2022/11/02 01:02:07;;;;;;;87.55;53.22;;;16.50;97.40;;;;;;5094701;28;20031;-64
2022/11/02 01:04:32;;;;;;;80.55;52.13;;;16.50;97.40;;;;;;5094406;28;20028;-64
2022/11/02 01:06:58;;;;;;;85.63;51.75;;;16.50;97.50;;;;;;5094478;28;20141;-64
2022/11/02 01:09:24;;;;;;;85.43;52.72;;;16.50;97.60;;;;;;5094447;28;20035;-64
2022/11/02 01:11:50;;;;;;;93.10;54.40;;;16.50;97.80;;;;;;5094436;28;20024;-64
2022/11/02 01:14:16;;;;;;;85.88;55.10;;;16.50;97.80;;;;;;5094326;28;20077;-65
2022/11/02 01:16:43;;;;;;;85.72;55.10;;;16.50;97.80;;;;;;5094612;28;20028;-66
2022/11/02 01:19:10;;;;;;;98.07;57.00;;;16.60;97.90;;;;;;5094205;28;20016;-64
2022/11/02 01:21:35;;;;;;;90.00;55.80;;;16.60;97.90;;;;;;5094629;28;20062;-65
2022/11/02 01:24:01;;;;;;;89.57;55.72;;;16.60;98.00;;;;;;5094195;28;20482;-64
2022/11/02 01:26:27;;;;;;;82.53;53.80;;;16.60;98.00;;;;;;5093895;28;20058;-64
2022/11/02 01:28:53;;;;;;;85.78;54.20;;;16.60;98.10;;;;;;5093967;28;20032;-64
2022/11/02 01:31:19;;;;;;;84.43;52.95;;;16.70;98.20;;;;;;5094051;28;20012;-64
2022/11/02 01:33:46;;;;;;;80.95;52.20;;;16.60;98.10;;;;;;5094166;28;20473;-64
2022/11/02 01:36:14;;;;;;;89.05;54.33;;;16.70;98.10;;;;;;5094148;28;20178;-64
2022/11/02 01:38:39;;;;;;;89.10;53.83;;;16.70;98.00;;;;;;5094071;28;20048;-67
2022/11/02 01:41:05;;;;;;;83.00;52.80;;;16.70;97.90;;;;;;5093986;28;20048;-64
2022/11/02 01:43:37;;;;;;;82.63;52.85;;;16.70;97.90;;;;;;5094077;28;20016;-64
2022/11/02 01:46:20;;;;;;;84.53;53.45;;;16.70;97.90;;;;;;5094058;28;20058;-64
2022/11/02 01:49:06;;;;;;;92.47;54.45;;;16.60;97.80;;;;;;5093819;28;20528;-64
2022/11/02 01:51:40;;;;;;;83.53;52.90;;;16.60;97.80;;;;;;5093463;28;20040;-65
2022/11/02 01:54:11;;;;;;;86.30;54.90;;;16.60;97.90;;;;;;5093331;28;20041;-63
2022/11/02 01:56:39;;;;;;;85.28;51.70;;;16.60;97.90;;;;;;5093525;28;20064;-65
2022/11/02 01:59:11;;;;;;;82.25;51.67;;;16.60;98.00;;;;;;5091301;28;20028;-66
2022/11/02 02:01:36;;;;;;;;;;;16.60;97.90;;;;;;5091393;28;20032;-66
2022/11/02 02:04:03;;;;;;;82.00;51.28;;;16.60;97.90;;;;;;5091029;28;19912;-66
2022/11/02 02:06:29;;;;;;;90.82;52.03;;;16.60;97.90;;;;;;5093528;28;20027;-63
2022/11/02 02:08:57;;;;;;;78.78;51.35;;;16.60;98.30;;;;;;5093410;28;20024;-65
2022/11/02 02:11:26;;;;;;;81.97;52.33;;;16.60;98.00;;;;;;5093835;28;20366;-64
2022/11/02 02:14:04;;;;;;;77.38;50.00;;;16.60;98.00;;;;;;5093093;28;20030;-65
2022/11/02 02:16:42;;;;;;;85.70;51.60;;;16.60;98.00;;;;;;5092962;28;20035;-67
2022/11/02 02:19:20;;;;;;;80.07;51.28;;;16.50;97.90;;;;;;5093300;28;20055;-63
2022/11/02 02:21:46;;;;;;;71.22;47.20;;;16.60;98.00;;;;;;5093171;28;20024;-64
2022/11/02 02:24:39;;;;;;;73.95;48.40;;;16.60;98.00;;;;;;5093278;28;20069;-64
2022/11/02 02:27:44;;;;;;;71.97;49.25;;;16.50;98.00;;;;;;5092789;28;20103;-64
2022/11/02 02:30:11;;;;;;;73.70;49.70;;;16.60;97.90;;;;;;5090591;28;20146;-64
2022/11/02 02:32:56;;;;;;;76.93;50.50;;;16.50;97.80;;;;;;5093078;28;20488;-64
2022/11/02 02:35:32;;;;;;;73.00;49.05;;;16.50;97.80;;;;;;5093168;28;20393;-69
2022/11/02 02:38:01;;;;;;;76.55;49.67;;;16.50;97.80;;;;;;5093077;28;20027;-64
2022/11/02 02:40:49;;;;;;;80.18;47.42;;;16.50;97.80;;;;;;5093028;28;20024;-65
2022/11/02 02:43:28;;;;;;;81.57;49.28;;;16.50;97.70;;;;;;5093273;28;20028;-64
2022/11/02 02:46:01;;;;;;;77.40;47.92;;;16.50;97.60;;;;;;5093077;28;20485;-65
2022/11/02 02:48:28;;;;;;;74.75;49.40;;;16.40;97.50;;;;;;5093148;28;20027;-70
2022/11/02 02:51:05;;;;;;;78.70;48.78;;;16.40;97.50;;;;;;5093123;28;20390;-64
2022/11/02 02:53:54;;;;;;;70.85;47.50;;;16.40;97.40;;;;;;5092972;28;20027;-64
2022/11/02 02:56:23;;;;;;;66.47;46.50;;;16.40;97.20;;;;;;5092669;28;20063;-67
2022/11/02 02:59:11;;;;;;;77.22;47.28;;;16.40;97.00;;;;;;5092747;28;20111;-64
2022/11/02 03:01:41;;;;;;;70.35;47.20;;;16.30;97.00;;;;;;5092496;28;20036;-64
2022/11/02 03:04:12;;;;;;;73.28;46.35;;;16.30;97.00;;;;;;5092875;28;20474;-64
2022/11/02 03:06:41;;;;;;;73.10;46.67;;;16.30;97.00;;;;;;5094338;28;20035;-67
2022/11/02 03:09:28;;;;;;;70.82;46.50;;;16.20;97.00;;;;;;5096744;28;20464;-65
2022/11/02 03:12:00;;;;;;;72.90;46.75;;;16.20;97.00;;;;;;5096902;28;20031;-65
2022/11/02 03:14:42;;;;;;;64.85;44.67;;;16.20;97.00;;;;;;5096932;28;20486;-65
2022/11/02 03:17:17;;;;;;;69.13;45.58;;;16.10;97.00;;;;;;5096837;28;20413;-65
2022/11/02 03:19:52;;;;;;;68.97;45.83;;;16.20;97.00;;;;;;5096677;28;20024;-69
2022/11/02 03:22:26;;;;;;;72.90;46.25;;;16.10;97.00;;;;;;5096831;28;20024;-64
2022/11/02 03:25:07;;;;;;;72.18;44.83;;;16.10;97.00;;;;;;5096409;28;20493;-72
2022/11/02 03:27:49;;;;;;;69.30;46.35;;;16.10;97.10;;;;;;5096663;28;20039;-63
2022/11/02 03:30:20;;;;;;;67.82;44.75;;;16.10;97.00;;;;;;5096613;28;20028;-67
2022/11/02 03:33:08;;;;;;;68.35;45.75;;;16.00;96.90;;;;;;5096233;28;20485;-64
2022/11/02 03:36:04;;;;;;;69.10;45.13;;;16.00;96.90;;;;;;5096296;28;20443;-66
2022/11/02 03:38:38;;;;;;;71.68;45.85;;;16.00;96.90;;;;;;5096329;28;20020;-65
2022/11/02 03:41:06;;;;;;;68.72;45.72;;;16.00;97.20;;;;;;5095925;28;20055;-65
2022/11/02 03:43:35;;;;;;;64.47;43.97;;;16.00;96.90;;;;;;5096337;28;20107;-66
2022/11/02 03:46:04;;;;;;;61.58;42.53;;;16.00;97.00;;;;;;5096025;28;20043;-66
2022/11/02 03:48:34;;;;;;;65.00;41.92;;;15.90;96.80;;;;;;5096059;28;20020;-65
2022/11/02 03:51:05;;;;;;;63.08;41.90;;;15.90;96.60;;;;;;5095897;28;20473;-63
2022/11/02 03:53:30;;;;;;;64.22;43.63;;;15.90;96.60;;;;;;5096004;28;20056;-66
2022/11/02 03:56:05;;;;;;;59.58;42.20;;;15.90;96.60;;;;;;5095684;28;20541;-66
2022/11/02 03:58:30;;;;;;;68.63;43.92;;;15.80;96.50;;;;;;5096121;28;20024;-65
2022/11/02 04:01:01;;;;;;;65.22;42.60;;;15.80;96.50;;;;;;5096089;28;20382;-64
2022/11/02 04:03:29;;;;;;;66.00;43.33;;;15.80;96.50;;;;;;5095834;28;20028;-64
2022/11/02 04:05:55;;;;;;;65.60;43.17;;;15.80;96.40;;;;;;5095845;28;20070;-65
2022/11/02 04:08:39;;;;;;;68.18;40.95;;;15.70;96.40;;;;;;5096028;28;20055;-64
2022/11/02 04:16:33;;;;;;;66.22;44.22;;;15.70;96.40;;;;;;5095624;28;20035;-64
2022/11/02 04:25:14;;;;;;;71.15;50.65;;;15.70;96.60;;;;;;5095755;28;20032;-64
2022/11/02 04:27:13;;;;;;;75.03;47.05;;;15.70;96.90;;;;;;5095719;28;20034;-64
2022/11/02 04:29:38;;;;;;;68.93;45.83;;;15.70;97.10;;;;;;5095021;28;20020;-63
2022/11/02 04:32:04;;;;;;;65.47;43.65;;;15.70;97.00;;;;;;5095289;28;20058;-63
2022/11/02 04:34:30;;;;;;;67.82;45.00;;;15.70;97.00;;;;;;5095704;28;20052;-64
2022/11/02 04:36:55;;;;;;;73.22;44.08;;;15.60;97.00;;;;;;5095025;28;20069;-64
2022/11/02 04:39:21;;;;;;;67.43;44.95;;;15.60;97.00;;;;;;5095130;28;20049;-64
2022/11/02 04:41:47;;;;;;;63.17;43.03;;;15.60;97.00;;;;;;5093919;28;20045;-65
2022/11/02 04:44:13;;;;;;;61.40;40.42;;;15.60;97.00;;;;;;5095099;28;20024;-64
2022/11/02 04:46:40;;;;;;;62.03;42.00;;;15.60;97.00;;;;;;5095145;28;20085;-64
2022/11/02 04:49:06;;;;;;;57.92;37.80;;;15.60;97.00;;;;;;5095123;28;20034;-65
2022/11/02 04:51:33;;;;;;;67.13;43.10;;;15.60;96.90;;;;;;5095179;28;20052;-64
2022/11/02 04:53:59;;;;;;;70.20;43.60;;;15.60;97.00;;;;;;5094915;28;20137;-64
2022/11/02 04:56:27;;;;;;;74.00;44.03;;;15.60;97.00;;;;;;5094691;28;20040;-66
2022/11/02 04:58:57;;;;;;;70.93;43.15;;;15.60;97.00;;;;;;5094907;28;20024;-63
2022/11/02 05:01:25;;;;;;;57.70;39.70;;;15.50;97.00;;;;;;5094579;28;20427;-65
2022/11/02 05:03:52;;;;;;;54.50;36.83;;;15.50;96.80;;;;;;5094865;28;20028;-66
2022/11/02 05:06:19;;;;;;;46.30;34.53;;;15.50;96.70;;;;;;5094787;28;20040;-64
2022/11/02 05:08:45;;;;;;;37.17;29.65;;;15.50;96.60;;;;;;5094370;28;20020;-63
2022/11/02 05:11:11;;;;;;;38.53;29.85;;;15.50;96.40;;;;;;5094597;28;20036;-64
2022/11/02 05:13:38;;;;;;;36.80;29.27;;;15.40;96.30;;;;;;5094600;28;20051;-65
2022/11/02 05:16:05;;;;;;;40.17;30.52;;;15.40;96.30;;;;;;5094573;28;20420;-66
2022/11/02 05:18:31;;;;;;;38.20;29.17;;;15.30;96.20;;;;;;5094374;28;20062;-69
2022/11/02 05:20:59;;;;;;;36.92;28.95;;;15.30;96.30;;;;;;5094116;28;20024;-65
2022/11/02 05:23:26;;;;;;;37.42;29.77;;;15.30;96.40;;;;;;5094349;28;20028;-64
2022/11/02 05:25:57;;;;;;;39.33;30.08;;;15.30;96.50;;;;;;5093878;28;20062;-64
2022/11/02 05:28:24;;;;;;;37.75;29.75;;;15.30;96.40;;;;;;5093842;28;20077;-64
2022/11/02 05:30:50;;;;;;;40.65;29.73;;;15.20;96.40;;;;;;5093826;28;20389;-64
2022/11/02 05:33:16;;;;;;;50.60;33.45;;;15.30;96.40;;;;;;5094414;28;20020;-64
2022/11/02 05:35:42;;;;;;;48.33;33.30;;;15.20;96.40;;;;;;5094501;28;20101;-67
2022/11/02 05:38:08;;;;;;;41.90;32.50;;;15.20;96.50;;;;;;5093962;28;20028;-65
2022/11/02 05:40:36;;;;;;;46.13;34.03;;;15.30;96.50;;;;;;5094198;28;20470;-69
2022/11/02 05:43:03;;;;;;;46.17;33.35;;;15.20;96.50;;;;;;5092541;28;20032;-72
2022/11/02 05:45:29;;;;;;;45.72;33.45;;;15.20;96.40;;;;;;5091325;28;20036;-73
2022/11/02 05:47:55;;;;;;;45.25;32.97;;;15.20;96.40;;;;;;5091643;28;20089;-74
2022/11/02 05:50:21;;;;;;;52.28;35.67;;;15.20;96.40;;;;;;5093828;28;20473;-64
2022/11/02 05:52:47;;;;;;;54.83;36.60;;;15.20;96.40;;;;;;5093956;28;20027;-63
2022/11/02 05:55:13;;;;;;;54.38;36.15;;;15.20;96.40;;;;;;5093377;28;20410;-72
2022/11/02 05:57:39;;;;;;;56.53;36.13;;;15.10;96.50;;;;;;5094166;28;20024;-65
2022/11/02 06:00:06;;;;;;;49.08;34.13;;;15.10;96.50;;;;;;5093883;28;20028;-65
2022/11/02 06:02:33;;;;;;;62.70;40.45;;;15.10;96.40;;;;;;5093796;28;20477;-67
2022/11/02 06:04:59;;;;;;;55.47;37.42;;;15.20;96.50;;;;;;5093710;28;20036;-64
2022/11/02 06:07:25;;;;;;;57.97;37.78;;;15.10;96.40;;;;;;5093471;28;20469;-68
2022/11/02 06:09:50;;;;;;;58.22;38.28;;;15.10;96.40;;;;;;5090686;28;20078;-67
2022/11/02 06:12:16;;;;;;;62.17;40.88;;;15.10;96.50;;;;;;5090729;28;20032;-64
2022/11/02 06:14:42;;;;;;;58.28;38.55;;;15.10;96.70;;;;;;5091579;28;20393;-64
2022/11/02 06:17:07;;;;;;;59.60;39.38;;;15.10;96.70;;;;;;5092758;28;20031;-64
2022/11/02 06:19:33;;;;;;;68.15;41.38;;;15.10;96.70;;;;;;5093120;28;20055;-65
2022/11/02 06:21:59;;;;;;;58.10;39.03;;;15.10;96.80;;;;;;5093183;28;20066;-66
2022/11/02 06:24:24;;;;;;;64.60;41.60;;;15.10;96.90;;;;;;5092559;28;20032;-64
2022/11/02 06:26:51;;;;;;;62.55;40.55;;;15.20;96.90;;;;;;5092996;28;20032;-64
2022/11/02 06:29:16;;;;;;;62.08;43.28;;;15.20;97.00;;;;;;5093245;28;20024;-66
2022/11/02 06:31:42;;;;;;;63.13;41.05;;;15.20;97.10;;;;;;5093111;28;20028;-64
2022/11/02 06:34:08;;;;;;;70.10;43.42;;;15.20;97.30;;;;;;5093187;28;20478;-65
2022/11/02 06:36:33;;;;;;;73.28;44.15;;;15.20;97.40;;;;;;5093210;28;20047;-69
2022/11/02 06:38:59;;;;;;;67.68;43.42;;;15.20;97.80;;;;;;5092522;28;20032;-66
2022/11/02 06:41:25;;;;;;;71.78;42.72;;;15.20;97.70;;;;;;5092731;28;20024;-72
2022/11/02 06:43:50;;;;;;;71.82;42.83;;;15.30;97.70;;;;;;5092969;28;20028;-67
2022/11/02 06:46:16;;;;;;;73.60;44.63;;;15.30;97.80;;;;;;5092633;28;20032;-64
2022/11/02 06:48:45;;;;;;;76.22;45.25;;;15.40;97.90;;;;;;5092840;28;20028;-63
2022/11/02 06:51:10;;;;;;;72.55;44.80;;;15.40;97.90;;;;;;5092882;28;20115;-63
2022/11/02 06:53:36;;;;;;;71.57;44.13;;;15.40;98.00;;;;;;5092394;28;20094;-63
2022/11/02 06:56:02;;;;;;;71.30;44.63;;;15.40;98.10;;;;;;5092268;28;20105;-66
2022/11/02 06:58:27;;;;;;;72.03;44.45;;;15.50;98.00;;;;;;5092822;28;20025;-66
2022/11/02 07:00:59;;;;;;;80.25;45.95;;;15.50;97.90;;;;;;5092289;28;20036;-63
2022/11/02 07:03:25;;;;;;;77.90;43.77;;;15.50;97.80;;;;;;5092811;28;20444;-63
2022/11/02 07:05:51;;;;;;;71.03;42.92;;;15.50;97.80;;;;;;5092729;28;20059;-66
2022/11/02 07:08:18;;;;;;;71.47;45.15;;;15.50;97.80;;;;;;5093315;28;20032;-64
2022/11/02 07:10:44;;;;;;;80.25;43.17;;;15.60;97.80;;;;;;5092785;28;20444;-65
2022/11/02 07:13:09;;;;;;;66.72;40.55;;;15.60;97.60;;;;;;5092591;28;20066;-65
2022/11/02 07:15:35;;;;;;;66.65;41.53;;;15.60;97.60;;;;;;5092300;28;20046;-62
2022/11/02 07:18:01;;;;;;;61.40;40.47;;;15.60;97.50;;;;;;5092212;28;20027;-65
2022/11/02 07:20:29;;;;;;;68.65;42.08;;;15.60;97.50;;;;;;5092463;28;20028;-63
2022/11/02 07:22:56;;;;;;;71.50;43.00;;;15.60;97.90;;;;;;5092586;28;20054;-64
2022/11/02 07:25:22;;;;;;;64.10;42.10;;;15.60;97.70;;;;;;5092260;28;20032;-63
2022/11/02 07:27:48;;;;;;;60.75;40.70;;;15.70;97.70;;;;;;5092012;28;20095;-63
2022/11/02 07:30:14;;;;;;;59.55;41.03;;;15.70;97.70;;;;;;5092359;28;20170;-64
2022/11/02 07:32:44;;;;;;;66.13;41.70;;;15.70;97.70;;;;;;5092211;28;20032;-64
2022/11/02 07:35:11;;;;;;;75.05;45.05;;;15.70;97.70;;;;;;5092120;28;20474;-63
2022/11/02 07:37:38;;;;;;;75.65;42.78;;;15.70;97.70;;;;;;5091899;28;20039;-64
2022/11/02 07:40:05;;;;;;;67.32;40.40;;;15.70;97.70;;;;;;5092435;28;20031;-63
2022/11/02 07:42:31;;;;;;;65.40;42.72;;;15.70;97.70;;;;;;5092510;28;20023;-64
2022/11/02 07:44:56;;;;;;;66.25;41.90;;;15.80;97.60;;;;;;5092293;28;20032;-63
2022/11/02 07:47:22;;;;;;;70.25;41.72;;;15.80;97.60;;;;;;5092181;28;20048;-63
2022/11/02 07:49:48;;;;;;;72.07;41.72;;;15.80;97.50;;;;;;5091794;28;20086;-63
2022/11/02 07:52:13;;;;;;;68.25;42.38;;;15.80;97.50;;;;;;5092885;28;20024;-64
2022/11/02 07:54:39;;;;;;;74.93;44.40;;;15.80;97.60;;;;;;5095938;28;20098;-63
2022/11/02 07:57:05;;;;;;;92.90;48.67;;;15.90;97.70;;;;;;5095915;28;20382;-62
2022/11/02 07:59:30;;;;;;;98.30;50.35;;;15.90;97.70;;;;;;5095903;28;20111;-62
2022/11/02 08:01:56;;;;;;;107.72;53.53;;;15.90;97.70;;;;;;5095521;28;20036;-63
2022/11/02 08:04:22;;;;;;;95.88;49.47;;;15.90;97.60;;;;;;5095455;28;20024;-62
2022/11/02 08:06:47;;;;;;;97.53;52.00;;;16.00;97.60;;;;;;5094753;28;20099;-63
2022/11/02 08:09:14;;;;;;;88.55;47.92;;;16.00;97.50;;;;;;5095207;28;20030;-62
2022/11/02 08:11:40;;;;;;;78.25;45.70;;;16.10;97.60;;;;;;5095301;28;20024;-62
2022/11/02 08:14:06;;;;;;;67.13;42.85;;;16.10;97.50;;;;;;5095248;28;20025;-63
2022/11/02 08:16:32;;;;;;;68.88;42.42;;;16.20;97.30;;;;;;5094837;28;20035;-70
2022/11/02 08:18:59;;;;;;;75.93;43.33;;;16.30;97.20;;;;;;5094817;28;20103;-63
2022/11/02 08:21:25;;;;;;;76.57;43.85;;;16.30;97.20;;;;;;5094218;28;20095;-68
2022/11/02 08:23:51;;;;;;;72.07;41.95;;;16.30;97.10;;;;;;5094478;28;20492;-67
2022/11/02 08:26:17;;;;;;;72.18;41.05;;;16.40;97.00;;;;;;5094946;28;20040;-69
2022/11/02 08:28:43;;;;;;;59.90;39.80;;;16.40;96.90;;;;;;5094857;28;20047;-67
2022/11/02 08:31:16;;;;;;;64.43;40.65;;;16.40;96.80;;;;;;5094868;28;20035;-66
2022/11/02 08:33:44;;;;;;;64.43;39.55;;;16.50;96.80;;;;;;5094583;28;20493;-67
2022/11/02 08:36:11;;;;;;;62.53;39.72;;;16.50;96.90;;;;;;5095281;28;20544;-67
2022/11/02 08:38:38;;;;;;;66.30;39.70;;;16.60;96.90;;;;;;5094695;28;20020;-67
2022/11/02 08:41:04;;;;;;;67.72;40.35;;;16.60;96.90;;;;;;5095288;28;20441;-67
2022/11/02 08:43:29;;;;;;;69.70;40.30;;;16.60;96.80;;;;;;5095000;28;20153;-67
2022/11/02 08:45:59;;;;;;;84.32;41.70;;;16.70;96.60;;;;;;5094980;28;20111;-67
2022/11/02 08:48:25;;;;;;;78.40;40.03;;;16.80;96.60;;;;;;5095438;28;20025;-68
2022/11/02 08:50:51;;;;;;;69.43;41.45;;;16.90;96.40;;;;;;5094738;28;20032;-68
2022/11/02 08:53:17;;;;;;;76.03;41.08;;;16.90;96.40;;;;;;5094967;28;20032;-67
2022/11/02 08:55:43;;;;;;;64.53;39.38;;;17.00;96.10;;;;;;5094337;28;20055;-67
2022/11/02 08:58:10;;;;;;;77.38;39.30;;;17.10;96.00;;;;;;5094742;28;20023;-67
2022/11/02 09:00:35;;;;;;;64.10;39.65;;;17.10;95.90;;;;;;5094698;28;20511;-67
2022/11/02 09:03:08;;;;;;;70.65;41.97;;;17.20;95.70;;;;;;5094421;28;20095;-67
2022/11/02 09:05:42;;;;;;;67.53;41.33;;;17.20;95.40;;;;;;5094266;28;20039;-68
2022/11/02 09:08:19;;;;;;;66.20;41.55;;;17.30;95.20;;;;;;5094133;28;20028;-68
2022/11/02 09:10:49;;;;;;;68.07;41.83;;;17.40;95.10;;;;;;5093882;28;20067;-68
2022/11/02 09:13:19;;;;;;;58.17;39.28;;;17.40;94.90;;;;;;5093880;28;20024;-67
2022/11/02 09:15:48;;;;;;;64.72;40.65;;;17.50;94.70;;;;;;5094087;28;20020;-68
2022/11/02 09:18:14;;;;;;;62.53;40.10;;;17.50;94.80;;;;;;5094031;28;20024;-67
2022/11/02 09:20:40;;;;;;;61.95;39.58;;;17.60;94.80;;;;;;5094131;28;20039;-67
2022/11/02 09:23:05;;;;;;;64.25;39.58;;;17.70;94.80;;;;;;5094116;28;20028;-69
2022/11/02 09:25:31;;;;;;;61.85;40.92;;;17.70;94.70;;;;;;5094055;28;20118;-68
2022/11/02 09:27:57;;;;;;;65.53;41.95;;;17.70;94.40;;;;;;5093986;28;20478;-69
2022/11/02 09:30:24;;;;;;;58.58;39.70;;;17.80;94.40;;;;;;5093827;28;20031;-67
2022/11/02 09:33:02;;;;;;;56.92;38.55;;;17.90;94.40;;;;;;5093382;28;20023;-70
2022/11/02 09:35:30;;;;;;;70.70;41.95;;;17.90;94.20;;;;;;5093693;28;20088;-68
2022/11/02 09:37:56;;;;;;;64.55;40.90;;;18.00;94.00;;;;;;5093944;28;20485;-75
2022/11/02 09:40:35;;;;;;;59.42;41.08;;;18.00;93.80;;;;;;5093593;28;20032;-68
2022/11/02 09:43:24;;;;;;;71.10;43.53;;;18.10;93.70;;;;;;5093161;28;20016;-68
2022/11/02 09:45:58;;;;;;;62.72;41.30;;;18.10;93.60;;;;;;5093683;28;20114;-68
2022/11/02 09:48:32;;;;;;;60.60;41.88;;;18.20;93.40;;;;;;5093553;28;20057;-68
2022/11/02 09:51:24;;;;;;;66.15;41.40;;;18.20;93.30;;;;;;5093752;28;20020;-69
2022/11/02 09:54:26;;;;;;;61.73;41.63;;;18.20;93.30;;;;;;5093419;28;20036;-68
2022/11/02 09:56:56;;;;;;;62.40;40.23;;;18.20;93.20;;;;;;5093789;28;20274;-69
2022/11/02 09:59:25;;;;;;;63.92;43.17;;;18.20;93.30;;;;;;5093521;28;20604;-69
2022/11/02 10:02:04;;;;;;;72.72;44.30;;;18.20;93.30;;;;;;5093649;28;20389;-68
2022/11/02 10:04:36;;;;;;;60.33;41.65;;;18.30;93.30;;;;;;5093303;28;20404;-69
2022/11/02 10:07:15;;;;;;;66.30;44.95;;;18.30;93.30;;;;;;5093176;28;20035;-68
2022/11/02 10:09:53;;;;;;;69.30;41.50;;;18.30;93.20;;;;;;5093733;28;20024;-76
2022/11/02 10:12:28;;;;;;;64.90;42.05;;;18.40;93.20;;;;;;5093660;28;20427;-68
2022/11/02 10:15:19;;;;;;;62.28;41.58;;;18.50;93.10;;;;;;5093200;28;20035;-69
2022/11/02 10:17:47;;;;;;;71.13;44.20;;;18.60;93.00;;;;;;5093497;28;20039;-68
2022/11/02 10:20:39;;;;;;;65.22;45.35;;;18.60;92.80;;;;;;5092831;28;20023;-72
2022/11/02 10:23:07;;;;;;;68.72;42.13;;;18.70;92.40;;;;;;5092692;28;20457;-68
2022/11/02 10:25:35;;;;;;;62.22;42.10;;;18.80;92.20;;;;;;5092659;28;20089;-68
2022/11/02 10:28:09;;;;;;;65.28;41.22;;;18.80;92.40;;;;;;5092527;28;20427;-71
2022/11/02 10:30:36;;;;;;;70.53;41.33;;;18.90;92.10;;;;;;5076440;28;20054;-69
2022/11/02 10:33:09;;;;;;;58.75;39.25;;;18.90;92.10;;;;;;5092854;28;20030;-71
2022/11/02 10:35:55;;;;;;;58.45;39.80;;;19.00;92.00;;;;;;5092636;28;20031;-70
2022/11/02 10:38:37;;;;;;;61.13;38.70;;;19.00;91.90;;;;;;5092375;28;20024;-68
2022/11/02 10:41:39;;;;;;;60.28;41.58;;;19.10;91.90;;;;;;5092692;28;20179;-68
2022/11/02 10:44:20;;;;;;;61.40;42.58;;;19.20;91.90;;;;;;5092458;28;20059;-69
2022/11/02 10:47:00;;;;;;;58.78;39.90;;;19.20;91.70;;;;;;5077404;28;20043;-68
2022/11/02 10:49:41;;;;;;;57.75;39.10;;;19.30;91.80;;;;;;5092645;28;20363;-69
2022/11/02 10:52:13;;;;;;;57.13;40.40;;;19.30;91.40;;;;;;5091936;28;20095;-71
2022/11/02 10:54:39;;;;;;;61.70;40.03;;;19.40;91.30;;;;;;5092098;28;20118;-69
2022/11/02 10:57:21;;;;;;;59.88;39.15;;;19.40;91.40;;;;;;5092284;28;20111;-70
2022/11/02 11:00:26;;;;;;;57.58;37.47;;;19.40;91.40;;;;;;5092682;28;20077;-68
2022/11/02 11:03:18;;;;;;;54.33;37.20;;;19.40;91.30;;;;;;5092246;28;20119;-71
2022/11/02 11:05:56;;;;;;;52.67;38.72;;;19.50;91.10;;;;;;5088535;28;21125;-69
2022/11/02 11:08:34;;;;;;;61.35;37.17;;;19.50;91.20;;;;;;5092633;28;20440;-69
2022/11/02 11:11:23;;;;;;;63.35;37.47;;;19.60;91.10;;;;;;5092464;28;20028;-69
2022/11/02 11:14:02;;;;;;;53.78;35.83;;;19.60;90.60;;;;;;5092300;28;20413;-70
2022/11/02 11:16:40;;;;;;;52.67;34.00;;;19.60;90.60;;;;;;5092230;28;20020;-72
2022/11/02 11:19:22;;;;;;;51.60;31.05;;;19.70;90.60;;;;;;5091804;28;20032;-69
2022/11/02 11:21:49;;;;;;;47.75;32.63;;;19.70;89.70;;;;;;5092270;28;20020;-71
2022/11/02 11:24:31;;;;;;;45.40;29.58;;;19.80;89.30;;;;;;5092204;28;20020;-70
2022/11/02 11:27:00;;;;;;;51.35;31.08;;;19.80;89.40;;;;;;5092834;28;20525;-70
2022/11/02 11:29:33;;;;;;;59.17;32.05;;;19.90;89.30;;;;;;5096470;28;20028;-69
2022/11/02 11:32:01;;;;;;;43.58;30.13;;;19.90;88.40;;;;;;5096577;28;20028;-70
2022/11/02 11:34:33;;;;;;;46.10;29.55;;;19.90;87.70;;;;;;5096499;28;20024;-69
2022/11/02 11:37:15;;;;;;;53.80;31.05;;;19.90;88.10;;;;;;5096439;28;20381;-70
2022/11/02 11:39:44;;;;;;;46.47;29.67;;;19.90;88.20;;;;;;5096313;28;20093;-69
2022/11/02 11:42:19;;;;;;;46.33;32.58;;;20.00;88.00;;;;;;5096377;28;20020;-69
2022/11/02 11:45:07;;;;;;;45.75;31.45;;;20.00;87.80;;;;;;5095891;28;20020;-69
2022/11/02 11:47:41;;;;;;;52.22;31.55;;;20.00;86.80;;;;;;5095761;28;20050;-71
2022/11/02 11:50:14;;;;;;;45.53;31.65;;;20.00;86.60;;;;;;5096060;28;20020;-69
2022/11/02 11:52:40;;;;;;;54.13;33.53;;;20.00;86.50;;;;;;5095965;28;20077;-69
2022/11/02 11:55:23;;;;;;;54.22;31.95;;;20.00;86.90;;;;;;5096165;28;20048;-68
2022/11/02 11:58:24;;;;;;;55.78;34.70;;;20.10;86.70;;;;;;5096124;28;20035;-70
2022/11/02 12:01:09;;;;;;;47.17;33.90;;;20.10;87.30;;;;;;5095613;28;20044;-66
2022/11/02 12:03:52;;;;;;;49.53;33.97;;;20.20;87.80;;;;;;5096282;28;20020;-70
2022/11/02 12:06:41;;;;;;;54.55;32.88;;;20.20;87.50;;;;;;5095921;28;20381;-68
2022/11/02 12:09:44;;;;;;;58.15;36.97;;;20.20;87.70;;;;;;5095994;28;20020;-69
2022/11/02 12:12:22;;;;;;;53.15;35.88;;;20.30;86.90;;;;;;5095903;28;20024;-70
2022/11/02 12:15:08;;;;;;;46.90;32.78;;;20.30;85.90;;;;;;5095931;28;20094;-70
2022/11/02 12:17:48;;;;;;;54.03;33.63;;;20.20;86.40;;;;;;5094942;28;20039;-69
2022/11/02 12:20:22;;;;;;;51.03;32.38;;;20.20;86.90;;;;;;5095590;28;20024;-67
2022/11/02 12:23:26;;;;;;;56.13;33.55;;;20.20;87.30;;;;;;5095721;28;20032;-69
2022/11/02 12:25:58;;;;;;;52.85;34.03;;;20.20;87.00;;;;;;5095068;28;20592;-69
2022/11/02 12:28:57;;;;;;;47.67;33.13;;;20.30;87.10;;;;;;5095566;28;20099;-68
2022/11/02 12:31:28;;;;;;;50.72;33.45;;;20.20;87.40;;;;;;5095148;28;20032;-68
2022/11/02 12:34:09;;;;;;;57.08;35.15;;;20.20;87.30;;;;;;5095232;28;20077;-68
2022/11/02 12:36:53;;;;;;;56.92;36.33;;;20.20;87.30;;;;;;5095191;28;20024;-68
2022/11/02 12:40:06;;;;;;;53.30;35.35;;;20.10;87.30;;;;;;5094894;28;20028;-68
2022/11/02 12:42:36;;;;;;;66.60;40.95;;;20.10;87.70;;;;;;5085124;28;20036;-67
2022/11/02 12:45:21;;;;;;;65.78;42.75;;;20.10;88.80;;;;;;5094850;28;20024;-68
2022/11/02 12:48:03;;;;;;;69.18;43.65;;;20.10;89.00;;;;;;5095158;28;20154;-68
2022/11/02 12:50:57;;;;;;;58.15;41.03;;;20.10;89.10;;;;;;5094691;28;20032;-67
2022/11/02 12:53:29;;;;;;;67.35;41.28;;;20.10;89.30;;;;;;5095108;28;20473;-67
2022/11/02 12:55:59;;;;;;;67.43;43.53;;;20.10;89.60;;;;;;5094671;28;20048;-67
2022/11/02 12:58:28;;;;;;;61.58;43.35;;;20.10;89.20;;;;;;5094792;28;20069;-68
2022/11/02 13:01:00;;;;;;;62.05;43.05;;;20.00;89.00;;;;;;5094457;28;20058;-68